createdAt,value
2018-09-30T00:01:07.028Z,97.50
2018-09-30T00:03:35.236Z,97.50
2018-09-30T00:06:03.488Z,97.50
2018-09-30T00:08:31.672Z,97.70
2018-09-30T00:10:59.895Z,97.70
2018-09-30T00:13:28.208Z,97.70
2018-09-30T00:15:56.424Z,97.80
2018-09-30T00:18:24.644Z,97.80
2018-09-30T00:20:52.840Z,97.90
2018-09-30T00:23:21.041Z,98.10
2018-09-30T00:25:54.716Z,98.10
2018-09-30T00:28:22.956Z,98.10
2018-09-30T00:30:51.177Z,98.00
2018-09-30T00:33:19.372Z,98.00
2018-09-30T00:35:47.556Z,98.10
2018-09-30T00:38:15.785Z,98.00
2018-09-30T00:40:44.088Z,98.10
2018-09-30T00:43:12.305Z,98.10
2018-09-30T00:45:40.512Z,98.10
2018-09-30T00:48:08.699Z,98.10
2018-09-30T00:50:36.893Z,98.20
2018-09-30T00:53:05.172Z,98.20
2018-09-30T00:55:33.471Z,98.30
2018-09-30T00:58:01.683Z,98.40
2018-09-30T01:00:29.906Z,98.50
2018-09-30T01:02:58.104Z,98.50
2018-09-30T01:05:26.320Z,98.50
2018-09-30T01:07:54.534Z,98.60
2018-09-30T01:10:22.728Z,98.60
2018-09-30T01:12:50.915Z,99.00
2018-09-30T01:15:19.500Z,98.70
2018-09-30T01:17:47.703Z,98.60
2018-09-30T01:20:15.905Z,98.60
2018-09-30T01:22:44.129Z,98.70
2018-09-30T01:25:12.378Z,98.70
2018-09-30T01:27:40.612Z,98.90
2018-09-30T01:30:08.844Z,99.00
2018-09-30T01:32:37.044Z,99.00
2018-09-30T01:35:05.361Z,98.90
2018-09-30T01:37:33.556Z,98.90
2018-09-30T01:40:01.784Z,99.00
2018-09-30T01:42:30.016Z,99.00
2018-09-30T01:44:58.247Z,99.00
2018-09-30T01:47:26.483Z,99.00
2018-09-30T01:49:54.691Z,99.10
2018-09-30T01:52:34.350Z,99.10
2018-09-30T01:55:02.556Z,99.00
2018-09-30T01:57:30.763Z,99.10
2018-09-30T01:59:59.014Z,99.20
2018-09-30T02:02:27.212Z,99.20
2018-09-30T02:04:55.495Z,99.20
2018-09-30T02:07:23.681Z,99.20
2018-09-30T02:09:51.860Z,99.20
2018-09-30T02:12:20.065Z,99.20
2018-09-30T02:14:48.265Z,99.20
2018-09-30T02:17:16.496Z,99.30
2018-09-30T02:19:44.708Z,99.30
2018-09-30T02:22:12.936Z,99.30
2018-09-30T02:24:41.162Z,99.30
2018-09-30T02:27:09.352Z,99.30
2018-09-30T02:29:37.552Z,99.40
2018-09-30T02:32:05.762Z,99.40
2018-09-30T02:34:33.976Z,99.40
2018-09-30T02:37:02.181Z,99.50
2018-09-30T02:39:30.396Z,99.60
2018-09-30T02:41:58.616Z,99.60
2018-09-30T02:44:26.857Z,99.60
2018-09-30T02:46:55.152Z,99.60
2018-09-30T02:49:23.330Z,99.70
2018-09-30T02:51:51.532Z,99.70
2018-09-30T02:54:19.736Z,99.70
2018-09-30T02:56:47.953Z,99.70
2018-09-30T02:59:16.156Z,99.70
2018-09-30T03:01:44.420Z,99.70
2018-09-30T03:04:12.665Z,99.70
2018-09-30T03:06:46.256Z,99.70
2018-09-30T03:09:16.847Z,99.80
2018-09-30T03:11:45.029Z,99.70
2018-09-30T03:14:14.548Z,99.80
2018-09-30T03:16:43.532Z,99.90
2018-09-30T03:19:11.798Z,99.90
2018-09-30T03:21:40.020Z,99.90
2018-09-30T03:24:08.673Z,99.80
2018-09-30T03:26:36.940Z,99.80
2018-09-30T03:29:05.184Z,99.90
2018-09-30T03:31:33.388Z,99.80
2018-09-30T03:34:01.846Z,99.90
2018-09-30T03:36:30.050Z,99.90
2018-09-30T03:38:58.331Z,99.90
2018-09-30T03:41:26.533Z,99.90
2018-09-30T03:43:54.728Z,99.90
2018-09-30T03:46:22.967Z,99.90
2018-09-30T03:48:51.167Z,99.90
2018-09-30T03:51:19.362Z,99.90
2018-09-30T03:53:47.544Z,99.90
2018-09-30T03:56:15.779Z,99.90
2018-09-30T03:58:43.989Z,99.90
2018-09-30T04:01:12.267Z,99.90
2018-09-30T04:03:40.471Z,99.90
2018-09-30T04:06:08.655Z,99.90
2018-09-30T04:08:37.136Z,99.90
2018-09-30T04:11:05.356Z,99.90
2018-09-30T04:13:33.915Z,99.90
2018-09-30T04:16:02.112Z,99.90
2018-09-30T04:18:30.316Z,99.90
2018-09-30T04:20:58.537Z,99.90
2018-09-30T04:23:26.840Z,99.90
2018-09-30T04:25:55.032Z,99.90
2018-09-30T04:28:23.247Z,99.90
2018-09-30T04:30:51.461Z,99.90
2018-09-30T04:33:19.693Z,99.90
2018-09-30T04:35:47.896Z,99.90
2018-09-30T04:38:16.152Z,99.90
2018-09-30T04:40:44.671Z,99.90
2018-09-30T04:43:12.885Z,99.90
2018-09-30T04:45:41.161Z,99.90
2018-09-30T04:48:09.367Z,99.90
2018-09-30T04:50:37.868Z,99.90
2018-09-30T04:53:06.141Z,99.90
2018-09-30T04:55:34.365Z,99.90
2018-09-30T04:58:02.564Z,99.90
2018-09-30T05:00:30.768Z,99.90
2018-09-30T05:02:58.972Z,99.90
2018-09-30T05:05:27.164Z,99.90
2018-09-30T05:07:55.363Z,99.90
2018-09-30T05:10:23.580Z,99.90
2018-09-30T05:12:51.792Z,99.90
2018-09-30T05:15:19.986Z,99.90
2018-09-30T05:17:48.219Z,99.90
2018-09-30T05:20:16.431Z,99.90
2018-09-30T05:22:44.664Z,99.90
2018-09-30T05:25:12.887Z,99.90
2018-09-30T05:27:41.131Z,99.90
2018-09-30T05:30:09.338Z,99.90
2018-09-30T05:32:37.524Z,99.90
2018-09-30T05:35:05.957Z,99.90
2018-09-30T05:37:34.165Z,99.90
2018-09-30T05:40:02.352Z,99.90
2018-09-30T05:42:30.622Z,99.90
2018-09-30T05:44:59.003Z,99.90
2018-09-30T05:47:27.287Z,99.90
2018-09-30T05:49:55.500Z,99.90
2018-09-30T05:52:23.709Z,99.90
2018-09-30T05:54:51.900Z,99.90
2018-09-30T05:57:20.100Z,99.90
2018-09-30T05:59:48.376Z,99.90
2018-09-30T06:02:16.636Z,99.90
2018-09-30T06:04:44.884Z,99.90
2018-09-30T06:07:13.095Z,99.90
2018-09-30T06:09:41.578Z,99.90
2018-09-30T06:12:09.837Z,99.90
2018-09-30T06:14:38.909Z,99.90
2018-09-30T06:17:07.111Z,99.90
2018-09-30T06:19:35.311Z,99.90
2018-09-30T06:22:03.602Z,99.90
2018-09-30T06:24:31.882Z,99.90
2018-09-30T06:27:00.169Z,99.90
2018-09-30T06:29:28.474Z,99.90
2018-09-30T06:31:57.180Z,99.90
2018-09-30T06:34:25.355Z,99.90
2018-09-30T06:36:53.540Z,99.90
2018-09-30T06:39:21.824Z,99.90
2018-09-30T06:41:50.055Z,99.90
2018-09-30T06:44:18.596Z,99.90
2018-09-30T06:46:46.797Z,99.90
2018-09-30T06:49:15.081Z,99.90
2018-09-30T06:51:43.328Z,99.90
2018-09-30T06:54:11.804Z,99.90
2018-09-30T06:56:40.009Z,99.90
2018-09-30T06:59:08.520Z,99.90
2018-09-30T07:01:36.720Z,99.90
2018-09-30T07:04:04.985Z,99.90
2018-09-30T07:06:33.168Z,99.90
2018-09-30T07:09:01.636Z,99.90
2018-09-30T07:11:29.964Z,99.90
2018-09-30T07:13:58.152Z,99.90
2018-09-30T07:16:26.372Z,99.90
2018-09-30T07:18:54.587Z,99.80
2018-09-30T07:21:22.812Z,99.80
2018-09-30T07:23:51.022Z,99.70
2018-09-30T07:26:19.216Z,99.60
2018-09-30T07:28:47.401Z,99.50
2018-09-30T07:31:15.720Z,99.40
2018-09-30T07:33:48.776Z,99.20
2018-09-30T07:36:16.941Z,99.10
2018-09-30T07:38:45.159Z,99.00
2018-09-30T07:41:13.430Z,98.80
2018-09-30T07:43:41.672Z,98.70
2018-09-30T07:46:09.876Z,98.50
2018-09-30T07:48:38.099Z,98.20
2018-09-30T07:51:06.283Z,98.00
2018-09-30T07:53:34.495Z,97.70
2018-09-30T07:56:02.699Z,97.30
2018-09-30T07:58:30.915Z,97.00
2018-09-30T08:01:00.191Z,96.70
2018-09-30T08:03:28.458Z,96.40
2018-09-30T08:05:56.669Z,96.10
2018-09-30T08:08:24.909Z,95.80
2018-09-30T08:10:53.121Z,95.50
2018-09-30T08:13:21.412Z,95.20
2018-09-30T08:15:49.667Z,95.00
2018-09-30T08:18:17.892Z,94.70
2018-09-30T08:20:46.219Z,94.40
2018-09-30T08:23:14.651Z,94.20
2018-09-30T08:25:42.887Z,94.00
2018-09-30T08:28:11.118Z,93.50
2018-09-30T08:30:39.378Z,93.20
2018-09-30T08:33:07.572Z,93.00
2018-09-30T08:35:35.801Z,92.80
2018-09-30T08:38:09.608Z,92.60
2018-09-30T08:40:43.341Z,92.40
2018-09-30T08:43:11.548Z,92.10
2018-09-30T08:45:39.811Z,91.80
2018-09-30T08:48:08.029Z,91.60
2018-09-30T08:50:36.268Z,91.50
2018-09-30T08:53:04.511Z,91.30
2018-09-30T08:55:32.776Z,91.00
2018-09-30T08:58:00.991Z,90.80
2018-09-30T09:00:29.217Z,90.50
2018-09-30T09:02:57.484Z,90.30
2018-09-30T09:05:25.667Z,90.10
2018-09-30T09:07:53.890Z,89.90
2018-09-30T09:10:22.337Z,89.40
2018-09-30T09:12:50.592Z,88.90
2018-09-30T09:15:18.917Z,88.50
2018-09-30T09:17:47.111Z,88.00
2018-09-30T09:20:15.382Z,87.50
2018-09-30T09:22:43.676Z,87.10
2018-09-30T09:25:11.952Z,86.40
2018-09-30T09:27:40.342Z,86.20
2018-09-30T09:30:08.872Z,85.70
2018-09-30T09:32:38.247Z,85.10
2018-09-30T09:35:08.326Z,84.80
2018-09-30T09:37:37.372Z,84.50
2018-09-30T09:40:06.852Z,84.70
2018-09-30T09:42:35.056Z,84.10
2018-09-30T09:45:03.323Z,83.70
2018-09-30T09:47:31.860Z,83.30
2018-09-30T09:50:00.280Z,82.90
2018-09-30T09:52:28.545Z,82.60
2018-09-30T09:54:56.817Z,82.20
2018-09-30T09:57:25.076Z,81.70
2018-09-30T09:59:53.268Z,81.20
2018-09-30T10:02:21.496Z,81.00
2018-09-30T10:04:49.776Z,87.50
2018-09-30T10:07:18.017Z,80.20
2018-09-30T10:09:46.240Z,79.80
2018-09-30T10:12:14.475Z,79.50
2018-09-30T10:14:42.720Z,79.30
2018-09-30T10:17:10.936Z,79.10
2018-09-30T10:19:39.239Z,78.60
2018-09-30T10:22:07.468Z,78.00
2018-09-30T10:24:35.664Z,77.90
2018-09-30T10:27:04.347Z,77.40
2018-09-30T10:29:32.620Z,77.40
2018-09-30T10:32:00.833Z,77.20
2018-09-30T10:34:29.040Z,77.10
2018-09-30T10:36:57.273Z,76.90
2018-09-30T10:39:25.484Z,76.70
2018-09-30T10:41:53.724Z,76.40
2018-09-30T10:44:21.928Z,75.90
2018-09-30T10:46:50.160Z,75.30
2018-09-30T10:49:18.496Z,75.00
2018-09-30T10:51:47.795Z,74.40
2018-09-30T10:54:16.058Z,74.20
2018-09-30T10:56:44.421Z,74.00
2018-09-30T10:59:13.048Z,73.90
2018-09-30T11:01:41.350Z,73.70
2018-09-30T11:04:09.645Z,72.80
2018-09-30T11:06:37.876Z,73.80
2018-09-30T11:09:06.751Z,73.60
2018-09-30T11:11:34.976Z,73.20
2018-09-30T11:14:03.416Z,72.90
2018-09-30T11:16:31.768Z,72.80
2018-09-30T11:18:59.968Z,72.50
2018-09-30T11:21:28.180Z,72.10
2018-09-30T11:23:56.382Z,72.10
2018-09-30T11:26:24.689Z,71.80
2018-09-30T11:28:52.907Z,71.30
2018-09-30T11:31:21.113Z,71.00
2018-09-30T11:33:49.311Z,70.30
2018-09-30T11:36:17.616Z,70.10
2018-09-30T11:38:45.835Z,70.30
2018-09-30T11:41:14.095Z,69.90
2018-09-30T11:43:42.335Z,69.40
2018-09-30T11:46:10.557Z,68.70
2018-09-30T11:48:38.765Z,67.90
2018-09-30T11:51:07.560Z,67.70
2018-09-30T11:53:35.810Z,67.50
2018-09-30T11:56:04.069Z,67.30
2018-09-30T11:58:32.356Z,66.90
2018-09-30T12:01:00.579Z,66.70
2018-09-30T12:03:28.822Z,66.80
2018-09-30T12:05:57.036Z,67.00
2018-09-30T12:08:25.338Z,67.10
2018-09-30T12:10:53.576Z,67.10
2018-09-30T12:13:21.790Z,67.00
2018-09-30T12:15:49.997Z,67.10
2018-09-30T12:18:18.539Z,66.60
2018-09-30T12:20:46.887Z,66.30
2018-09-30T12:23:15.246Z,66.10
2018-09-30T12:25:44.156Z,65.50
2018-09-30T12:28:13.173Z,64.80
2018-09-30T12:30:43.062Z,64.90
2018-09-30T12:35:53.483Z,64.20
2018-09-30T12:38:21.667Z,63.90
2018-09-30T12:40:49.840Z,63.80
2018-09-30T12:43:18.203Z,63.30
2018-09-30T12:45:46.394Z,63.00
2018-09-30T12:48:14.591Z,62.40
2018-09-30T12:50:42.784Z,62.30
2018-09-30T12:53:11.368Z,62.30
2018-09-30T12:55:39.581Z,62.70
2018-09-30T12:58:07.837Z,62.80
2018-09-30T13:00:36.016Z,62.40
2018-09-30T13:03:04.253Z,62.30
2018-09-30T13:05:32.502Z,61.80
2018-09-30T13:08:01.032Z,61.50
2018-09-30T13:10:29.228Z,61.60
2018-09-30T13:12:58.903Z,61.30
2018-09-30T13:15:27.512Z,61.00
2018-09-30T13:17:55.724Z,60.90
2018-09-30T13:20:24.018Z,61.00
2018-09-30T13:22:52.293Z,60.90
2018-09-30T13:25:20.511Z,61.00
2018-09-30T13:27:48.741Z,61.00
2018-09-30T13:30:16.976Z,61.20
2018-09-30T13:32:45.196Z,61.00
2018-09-30T13:35:13.399Z,60.80
2018-09-30T13:37:41.627Z,60.50
2018-09-30T13:40:10.018Z,59.80
2018-09-30T13:42:38.142Z,59.80
2018-09-30T13:45:07.483Z,59.60
2018-09-30T13:47:35.696Z,59.60
2018-09-30T13:50:04.009Z,59.60
2018-09-30T13:52:32.236Z,59.60
2018-09-30T13:55:00.455Z,59.80
2018-09-30T13:57:28.667Z,60.30
2018-09-30T13:59:56.879Z,60.10
2018-09-30T14:02:25.095Z,59.70
2018-09-30T14:04:53.303Z,59.70
2018-09-30T14:07:21.517Z,59.70
2018-09-30T14:09:49.848Z,59.70
2018-09-30T14:12:18.067Z,59.90
2018-09-30T14:14:47.160Z,60.00
2018-09-30T14:17:15.359Z,59.80
2018-09-30T14:19:43.580Z,59.60
2018-09-30T14:22:11.787Z,59.30
2018-09-30T14:24:39.968Z,59.10
2018-09-30T14:27:08.235Z,59.10
2018-09-30T14:29:36.431Z,58.90
2018-09-30T14:32:04.675Z,58.80
2018-09-30T14:34:32.894Z,58.70
2018-09-30T14:37:01.143Z,58.60
2018-09-30T14:39:29.355Z,58.50
2018-09-30T14:41:57.587Z,58.50
2018-09-30T14:44:26.118Z,58.40
2018-09-30T14:46:54.356Z,58.40
2018-09-30T14:49:22.611Z,58.40
2018-09-30T14:51:50.878Z,58.40
2018-09-30T14:54:19.791Z,58.60
2018-09-30T14:56:47.968Z,58.50
2018-09-30T14:59:16.171Z,58.40
2018-09-30T15:01:44.379Z,58.40
2018-09-30T15:04:12.602Z,58.30
2018-09-30T15:06:41.009Z,58.30
2018-09-30T15:09:10.973Z,58.30
2018-09-30T15:11:39.268Z,58.40
2018-09-30T15:14:07.548Z,58.40
2018-09-30T15:16:36.032Z,58.50
2018-09-30T15:19:05.066Z,58.70
2018-09-30T15:21:33.319Z,58.80
2018-09-30T15:24:01.787Z,58.80
2018-09-30T15:26:29.988Z,58.70
2018-09-30T15:28:58.264Z,58.70
2018-09-30T15:31:26.677Z,58.80
2018-09-30T15:33:54.948Z,58.80
2018-09-30T15:36:23.271Z,58.80
2018-09-30T15:38:51.551Z,58.80
2018-09-30T15:41:19.775Z,58.80
2018-09-30T15:43:48.285Z,58.70
2018-09-30T15:46:16.499Z,58.60
2018-09-30T15:48:44.775Z,58.70
2018-09-30T15:51:12.996Z,58.70
2018-09-30T15:53:41.274Z,58.60
2018-09-30T15:56:09.801Z,58.60
2018-09-30T15:58:38.099Z,58.60
2018-09-30T16:01:06.275Z,58.70
2018-09-30T16:03:34.537Z,58.90
2018-09-30T16:06:02.767Z,59.00
2018-09-30T16:08:30.958Z,59.20
2018-09-30T16:10:59.304Z,59.30
2018-09-30T16:13:27.498Z,59.60
2018-09-30T16:15:55.705Z,59.90
2018-09-30T16:18:23.951Z,60.30
2018-09-30T16:20:52.135Z,61.10
2018-09-30T16:23:20.353Z,61.60
2018-09-30T16:25:48.602Z,62.00
2018-09-30T16:28:16.822Z,62.50
2018-09-30T16:30:45.012Z,63.00
2018-09-30T16:33:13.320Z,63.40
2018-09-30T16:35:41.600Z,63.90
2018-09-30T16:38:09.981Z,64.50
2018-09-30T16:40:38.551Z,65.20
2018-09-30T16:43:06.882Z,65.90
2018-09-30T16:45:35.088Z,66.80
2018-09-30T16:48:04.033Z,67.30
2018-09-30T16:50:32.482Z,67.70
2018-09-30T16:53:00.643Z,68.70
2018-09-30T16:55:28.856Z,69.30
2018-09-30T16:57:57.093Z,69.90
2018-09-30T17:00:25.296Z,70.70
2018-09-30T17:02:53.729Z,71.80
2018-09-30T17:05:21.952Z,72.90
2018-09-30T17:07:50.395Z,74.00
2018-09-30T17:10:18.688Z,75.20
2018-09-30T17:12:46.906Z,76.30
2018-09-30T17:15:15.284Z,77.40
2018-09-30T17:17:43.989Z,78.30
2018-09-30T17:20:12.204Z,79.20
2018-09-30T17:22:40.627Z,80.10
2018-09-30T17:25:08.827Z,80.90
2018-09-30T17:27:37.016Z,81.80
2018-09-30T17:30:05.352Z,82.50
2018-09-30T17:32:33.552Z,83.10
2018-09-30T17:35:01.888Z,83.80
2018-09-30T17:37:30.137Z,84.70
2018-09-30T17:39:58.552Z,85.20
2018-09-30T17:42:26.760Z,85.80
2018-09-30T17:47:32.576Z,86.60
2018-09-30T17:50:00.779Z,87.00
2018-09-30T17:52:29.035Z,87.60
2018-09-30T17:54:57.255Z,88.10
2018-09-30T17:57:25.524Z,88.70
2018-09-30T17:59:53.732Z,89.50
2018-09-30T18:02:21.943Z,89.80
2018-09-30T18:04:50.180Z,90.10
2018-09-30T18:07:18.432Z,90.30
2018-09-30T18:09:46.640Z,90.50
2018-09-30T18:12:14.848Z,90.80
2018-09-30T18:14:43.118Z,90.90
2018-09-30T18:17:11.347Z,91.20
2018-09-30T18:19:39.572Z,91.40
2018-09-30T18:22:07.892Z,91.40
2018-09-30T18:24:36.144Z,92.10
2018-09-30T18:27:04.386Z,92.00
2018-09-30T18:29:32.651Z,92.20
2018-09-30T18:32:00.955Z,92.40
2018-09-30T18:34:29.207Z,92.70
2018-09-30T18:36:57.521Z,92.90
2018-09-30T18:39:25.740Z,93.10
2018-09-30T18:41:53.956Z,93.30
2018-09-30T18:44:22.168Z,93.40
2018-09-30T18:46:50.388Z,93.60
2018-09-30T18:49:18.600Z,93.70
2018-09-30T18:51:47.079Z,93.80
2018-09-30T18:54:15.408Z,94.00
2018-09-30T18:56:43.641Z,94.10
2018-09-30T18:59:12.017Z,94.20
2018-09-30T19:01:40.374Z,94.30
2018-09-30T19:04:08.585Z,94.30
2018-09-30T19:06:37.078Z,94.20
2018-09-30T19:09:07.365Z,94.20
2018-09-30T19:11:35.611Z,94.10
2018-09-30T19:14:03.808Z,94.10
2018-09-30T19:16:32.228Z,94.00
2018-09-30T19:19:00.469Z,94.00
2018-09-30T19:21:28.766Z,94.10
2018-09-30T19:23:57.025Z,94.00
2018-09-30T19:26:25.229Z,94.00
2018-09-30T19:28:53.453Z,94.00
2018-09-30T19:31:21.734Z,94.00
2018-09-30T19:33:49.872Z,94.10
2018-09-30T19:36:18.147Z,94.20
2018-09-30T19:38:46.379Z,94.40
2018-09-30T19:41:14.624Z,94.60
2018-09-30T19:43:42.875Z,94.80
2018-09-30T19:46:11.168Z,94.90
2018-09-30T19:48:39.535Z,95.10
2018-09-30T19:51:07.709Z,95.30
2018-09-30T19:53:35.948Z,95.40
2018-09-30T19:56:04.266Z,95.50
2018-09-30T19:58:32.456Z,95.70
2018-09-30T20:01:00.690Z,95.80
2018-09-30T20:03:28.948Z,96.00
2018-09-30T20:05:57.780Z,96.10
2018-09-30T20:08:25.981Z,96.20
2018-09-30T20:10:54.207Z,96.30
2018-09-30T20:13:22.433Z,96.50
2018-09-30T20:15:50.669Z,96.60
2018-09-30T20:18:18.927Z,96.70
2018-09-30T20:20:47.230Z,96.80
2018-09-30T20:23:15.414Z,96.90
2018-09-30T20:25:43.612Z,96.90
2018-09-30T20:28:11.873Z,97.00
2018-09-30T20:30:40.079Z,97.10
2018-09-30T20:33:08.412Z,97.20
2018-09-30T20:35:36.760Z,97.30
2018-09-30T20:38:05.052Z,97.40
2018-09-30T20:40:36.742Z,97.60
2018-09-30T20:43:04.909Z,97.60
2018-09-30T20:45:33.116Z,97.70
2018-09-30T20:48:01.338Z,97.70
2018-09-30T20:50:29.628Z,97.80
2018-09-30T20:52:57.836Z,97.90
2018-09-30T20:55:26.241Z,97.90
2018-09-30T20:57:54.773Z,98.00
2018-09-30T21:00:23.137Z,98.20
2018-09-30T21:02:51.375Z,98.20
2018-09-30T21:05:36.308Z,98.60
2018-09-30T21:08:04.513Z,98.40
2018-09-30T21:10:32.737Z,98.40
2018-09-30T21:13:01.024Z,98.50
2018-09-30T21:15:29.269Z,98.60
2018-09-30T21:17:57.512Z,98.60
2018-09-30T21:20:25.796Z,98.60
2018-09-30T21:22:53.991Z,98.70
2018-09-30T21:25:22.375Z,98.70
2018-09-30T21:27:50.607Z,98.80
2018-09-30T21:30:18.818Z,98.90
2018-09-30T21:32:47.086Z,99.00
2018-09-30T21:35:15.287Z,99.00
2018-09-30T21:37:43.823Z,99.00
2018-09-30T21:40:12.166Z,99.10
2018-09-30T21:42:40.371Z,99.20
2018-09-30T21:45:08.596Z,99.20
2018-09-30T21:47:36.808Z,99.10
2018-09-30T21:50:05.096Z,99.10
2018-09-30T21:52:33.335Z,99.10
2018-09-30T21:55:01.916Z,99.10
2018-09-30T21:57:30.159Z,99.10
2018-09-30T21:59:58.473Z,99.40
2018-09-30T22:02:26.672Z,99.20
2018-09-30T22:04:54.864Z,99.20
2018-09-30T22:07:23.543Z,99.20
2018-09-30T22:09:51.742Z,99.30
2018-09-30T22:12:19.984Z,99.30
2018-09-30T22:14:48.196Z,99.40
2018-09-30T22:17:16.396Z,99.40
2018-09-30T22:19:44.715Z,99.50
2018-09-30T22:22:12.940Z,99.50
2018-09-30T22:24:41.244Z,99.60
2018-09-30T22:27:09.555Z,99.60
2018-09-30T22:29:37.756Z,99.60
2018-09-30T22:32:06.089Z,99.70
2018-09-30T22:34:34.301Z,99.70
2018-09-30T22:37:02.881Z,99.60
2018-09-30T22:39:31.107Z,99.70
2018-09-30T22:41:59.392Z,99.80
2018-09-30T22:44:27.674Z,99.80
2018-09-30T22:46:55.871Z,99.80
2018-09-30T22:49:24.100Z,99.90
2018-09-30T22:51:52.304Z,99.90
2018-09-30T22:54:20.536Z,99.90
2018-09-30T22:56:48.776Z,99.90
2018-09-30T22:59:17.003Z,99.90
2018-09-30T23:01:45.234Z,99.90
2018-09-30T23:04:13.485Z,99.90
2018-09-30T23:06:41.756Z,99.90
2018-09-30T23:09:10.081Z,99.90
2018-09-30T23:11:38.484Z,99.90
2018-09-30T23:14:07.040Z,99.90
2018-09-30T23:16:35.404Z,99.90
2018-09-30T23:19:03.605Z,99.90
2018-09-30T23:21:31.857Z,99.90
2018-09-30T23:24:00.097Z,99.90
2018-09-30T23:26:28.329Z,99.90
2018-09-30T23:28:56.991Z,99.90
2018-09-30T23:31:25.183Z,99.90
2018-09-30T23:33:53.402Z,99.90
2018-09-30T23:36:21.666Z,99.90
2018-09-30T23:38:49.836Z,99.90
2018-09-30T23:41:18.099Z,99.90
2018-09-30T23:43:46.389Z,99.90
2018-09-30T23:46:14.688Z,99.90
2018-09-30T23:48:42.900Z,99.90
2018-09-30T23:51:11.104Z,99.90
2018-09-30T23:53:39.304Z,99.90
2018-09-30T23:56:07.792Z,99.90
2018-09-30T23:58:36.005Z,99.90
